createdAt,value
2022-09-23T00:04:03.304Z,5.63
2022-09-23T00:09:11.314Z,5.90
2022-09-23T00:14:17.639Z,5.57
2022-09-23T00:19:22.386Z,5.23
2022-09-23T00:24:24.710Z,5.63
2022-09-23T00:29:29.283Z,5.33
2022-09-23T00:34:34.169Z,5.50
2022-09-23T00:39:36.482Z,5.33
2022-09-23T00:44:42.066Z,5.23
2022-09-23T00:49:49.527Z,4.60
2022-09-23T00:54:58.996Z,4.83
2022-09-23T01:00:01.459Z,5.33
2022-09-23T01:05:07.219Z,4.60
2022-09-23T01:10:10.843Z,4.60
2022-09-23T01:15:19.436Z,5.10
2022-09-23T01:20:42.875Z,4.67
2022-09-23T01:26:06.311Z,4.43
2022-09-23T01:31:13.259Z,4.90
2022-09-23T01:36:20.765Z,4.90
2022-09-23T01:41:46.406Z,4.30
2022-09-23T01:46:56.823Z,4.83
2022-09-23T01:52:11.053Z,4.77
2022-09-23T01:57:21.957Z,4.57
2022-09-23T02:02:28.609Z,4.57
2022-09-23T02:07:38.914Z,4.40
2022-09-23T02:12:45.194Z,4.40
2022-09-23T02:17:52.182Z,4.47
2022-09-23T02:22:56.535Z,4.27
2022-09-23T02:28:21.150Z,4.30
2022-09-23T02:33:36.804Z,4.00
2022-09-23T02:38:43.930Z,4.20
2022-09-23T02:43:46.211Z,4.07
2022-09-23T02:48:53.391Z,3.73
2022-09-23T02:54:03.580Z,3.80
2022-09-23T02:59:06.246Z,3.40
2022-09-23T03:04:27.380Z,3.20
2022-09-23T03:09:40.314Z,3.17
2022-09-23T03:14:57.306Z,3.33
2022-09-23T03:20:04.707Z,3.43
2022-09-23T03:25:13.056Z,2.80
2022-09-23T03:30:15.464Z,2.70
2022-09-23T03:35:17.819Z,3.37
2022-09-23T03:40:24.510Z,3.10
2022-09-23T03:45:29.844Z,2.80
2022-09-23T03:50:32.421Z,2.80
2022-09-23T03:55:39.465Z,2.73
2022-09-23T04:00:44.383Z,3.13
2022-09-23T04:05:48.555Z,3.20
2022-09-23T04:10:54.727Z,3.20
2022-09-23T04:15:57.460Z,3.30
2022-09-23T04:21:02.763Z,2.87
2022-09-23T04:26:08.522Z,3.60
2022-09-23T04:31:11.140Z,3.73
2022-09-23T04:36:15.924Z,3.77
2022-09-23T04:41:18.698Z,4.47
2022-09-23T04:46:26.300Z,3.83
2022-09-23T04:51:28.905Z,3.87
2022-09-23T04:56:38.751Z,3.90
2022-09-23T05:01:43.742Z,4.27
2022-09-23T05:06:51.175Z,4.70
2022-09-23T05:11:53.569Z,4.83
2022-09-23T05:16:55.871Z,4.20
2022-09-23T05:21:58.154Z,4.07
2022-09-23T05:27:02.846Z,4.97
2022-09-23T05:32:05.210Z,4.57
2022-09-23T05:37:07.575Z,4.00
2022-09-23T05:42:12.631Z,3.20
2022-09-23T05:47:18.090Z,3.70
2022-09-23T05:52:22.855Z,3.73
2022-09-23T05:57:27.430Z,4.57
2022-09-23T06:02:29.759Z,4.30
2022-09-23T06:07:32.728Z,5.32
2022-09-23T06:12:37.592Z,5.03
2022-09-23T06:17:42.443Z,4.90
2022-09-23T06:22:50.124Z,4.60
2022-09-23T06:28:00.364Z,5.67
2022-09-23T06:33:04.811Z,3.77
2022-09-23T06:38:09.740Z,3.97
2022-09-23T06:43:12.537Z,4.27
2022-09-23T06:48:15.109Z,2.67
2022-09-23T06:53:17.588Z,4.77
2022-09-23T06:58:21.037Z,4.63
2022-09-23T07:03:27.521Z,3.20
2022-09-23T07:08:34.126Z,4.00
2022-09-23T07:13:37.617Z,3.30
2022-09-23T07:18:41.193Z,2.93
2022-09-23T07:23:47.121Z,4.10
2022-09-23T07:28:56.858Z,4.27
2022-09-23T07:34:03.939Z,2.67
2022-09-23T07:39:12.278Z,3.90
2022-09-23T07:44:14.562Z,3.90
2022-09-23T07:49:20.706Z,3.97
2022-09-23T07:54:29.709Z,3.23
2022-09-23T07:59:36.617Z,3.97
2022-09-23T08:04:38.895Z,2.37
2022-09-23T08:09:41.978Z,2.80
2022-09-23T08:14:45.490Z,1.77
2022-09-23T08:19:50.383Z,2.03
2022-09-23T08:24:56.517Z,1.67
2022-09-23T08:30:01.153Z,1.43
2022-09-23T08:35:03.592Z,1.63
2022-09-23T08:40:08.902Z,1.50
2022-09-23T08:45:19.764Z,1.30
2022-09-23T08:50:23.719Z,1.00
2022-09-23T08:55:41.583Z,1.20
2022-09-23T09:00:47.880Z,1.40
2022-09-23T09:05:54.583Z,1.53
2022-09-23T09:10:59.749Z,1.88
2022-09-23T09:16:41.865Z,0.90
2022-09-23T09:21:49.964Z,1.20
2022-09-23T09:26:55.332Z,1.05
2022-09-23T09:32:03.067Z,1.25
2022-09-23T09:37:23.451Z,1.10
2022-09-23T09:42:40.002Z,1.20
2022-09-23T09:47:47.383Z,1.27
2022-09-23T09:52:57.773Z,1.00
2022-09-23T09:58:04.221Z,1.30
2022-09-23T10:03:26.965Z,1.10
2022-09-23T10:08:35.064Z,1.20
2022-09-23T10:13:42.374Z,1.17
2022-09-23T10:18:47.891Z,0.88
2022-09-23T10:23:58.691Z,9.98
2022-09-23T10:29:02.559Z,1.02
2022-09-23T10:34:34.955Z,1.15
2022-09-23T10:39:58.226Z,1.40
2022-09-23T10:45:39.701Z,2.95
2022-09-23T10:50:52.502Z,1.50
2022-09-23T10:56:07.181Z,1.23
2022-09-23T11:01:25.351Z,1.30
2022-09-23T11:06:27.894Z,1.57
2022-09-23T11:11:55.048Z,1.40
2022-09-23T11:16:58.331Z,1.23
2022-09-23T11:22:10.718Z,1.88
2022-09-23T11:27:28.646Z,1.53
2022-09-23T11:32:33.976Z,1.73
2022-09-23T11:37:40.914Z,1.25
2022-09-23T11:43:00.608Z,1.23
2022-09-23T11:48:11.957Z,1.00
2022-09-23T11:53:28.886Z,1.30
2022-09-23T11:58:33.865Z,1.40
2022-09-23T12:04:03.452Z,1.20
2022-09-23T12:09:47.354Z,1.30
2022-09-23T12:14:50.345Z,1.65
2022-09-23T12:19:54.739Z,1.08
2022-09-23T12:25:10.437Z,0.93
2022-09-23T12:30:21.022Z,0.80
2022-09-23T12:35:25.244Z,1.37
2022-09-23T12:40:33.516Z,0.88
2022-09-23T12:45:37.836Z,1.10
2022-09-23T12:50:51.800Z,1.00
2022-09-23T12:55:54.436Z,1.10
2022-09-23T13:01:07.443Z,0.93
2022-09-23T13:06:29.760Z,1.42
2022-09-23T13:11:32.796Z,0.93
2022-09-23T13:16:39.390Z,3.58
2022-09-23T13:21:46.114Z,1.10
2022-09-23T13:26:51.601Z,31.73
2022-09-23T13:31:58.101Z,3.28
2022-09-23T13:37:40.958Z,1.30
2022-09-23T13:42:52.007Z,1.40
2022-09-23T13:47:59.009Z,1.20
2022-09-23T13:53:02.576Z,1.20
2022-09-23T13:58:13.976Z,3.15
2022-09-23T14:03:24.059Z,1.40
2022-09-23T14:08:27.327Z,1.10
2022-09-23T14:13:35.165Z,1.13
2022-09-23T14:18:41.405Z,1.25
2022-09-23T14:23:46.051Z,1.30
2022-09-23T14:28:48.605Z,1.90
2022-09-23T14:33:51.093Z,1.00
2022-09-23T14:44:00.478Z,1.10
2022-09-23T15:34:54.205Z,1.10
2022-09-23T15:39:58.990Z,1.57
2022-09-23T15:45:01.309Z,1.33
2022-09-23T15:50:07.249Z,1.30
2022-09-23T15:55:17.299Z,1.30
2022-09-23T16:00:24.252Z,1.40
2022-09-23T16:05:36.320Z,1.30
2022-09-23T16:10:38.951Z,1.40
2022-09-23T16:15:44.589Z,1.47
2022-09-23T16:20:52.302Z,1.37
2022-09-23T16:26:00.103Z,1.60
2022-09-23T16:31:03.174Z,2.00
2022-09-23T16:36:14.383Z,2.35
2022-09-23T16:41:16.949Z,4.53
2022-09-23T16:46:23.980Z,3.93
2022-09-23T16:51:27.356Z,2.70
2022-09-23T16:56:30.989Z,2.00
2022-09-23T17:01:52.216Z,2.55
2022-09-23T17:06:57.238Z,2.40
2022-09-23T17:12:07.786Z,2.35
2022-09-23T17:17:12.570Z,2.50
2022-09-23T17:22:17.268Z,3.10
2022-09-23T17:27:19.601Z,4.00
2022-09-23T17:32:22.045Z,8.20
2022-09-23T17:37:24.457Z,10.80
2022-09-23T17:42:35.718Z,14.07
2022-09-23T17:47:43.481Z,13.87
2022-09-23T17:52:45.900Z,12.05
2022-09-23T17:57:50.642Z,10.50
2022-09-23T18:02:56.039Z,10.03
2022-09-23T18:07:59.550Z,8.18
2022-09-23T18:13:04.187Z,5.97
2022-09-23T18:18:06.768Z,5.82
2022-09-23T18:23:11.620Z,14.63
2022-09-23T18:28:16.534Z,27.87
2022-09-23T18:33:19.044Z,28.23
2022-09-23T18:38:23.553Z,16.42
2022-09-23T18:43:32.072Z,15.32
2022-09-23T18:48:56.315Z,19.75
2022-09-23T18:53:59.648Z,10.38
2022-09-23T18:59:06.432Z,11.13
2022-09-23T19:04:09.183Z,15.93
2022-09-23T19:09:17.882Z,9.00
2022-09-23T19:14:20.275Z,11.57
2022-09-23T19:19:23.526Z,11.02
2022-09-23T19:24:28.351Z,10.05
2022-09-23T19:29:31.019Z,10.02
2022-09-23T19:34:34.777Z,10.07
2022-09-23T19:44:43.479Z,12.93
2022-09-23T19:49:45.943Z,11.60
2022-09-23T19:54:52.992Z,16.10
2022-09-23T19:59:55.363Z,11.50
2022-09-23T20:04:57.610Z,9.85
2022-09-23T20:09:59.959Z,16.00
2022-09-23T20:15:05.660Z,12.98
2022-09-23T20:20:09.735Z,9.73
2022-09-23T20:25:17.882Z,7.97
2022-09-23T20:30:20.968Z,7.70
2022-09-23T20:35:25.648Z,8.97
2022-09-23T20:40:30.420Z,7.35
2022-09-23T20:45:33.122Z,7.87
2022-09-23T20:50:37.825Z,7.13
2022-09-23T20:55:55.367Z,7.50
2022-09-23T21:01:02.881Z,7.43
2022-09-23T21:06:09.191Z,6.30
2022-09-23T21:11:15.567Z,6.90
2022-09-23T21:16:19.241Z,7.00
2022-09-23T21:21:22.424Z,7.13
2022-09-23T21:26:30.384Z,6.87
2022-09-23T21:31:34.504Z,7.10
2022-09-23T21:36:41.493Z,6.82
2022-09-23T21:41:44.045Z,7.23
2022-09-23T21:46:57.559Z,7.23
2022-09-23T21:52:02.462Z,6.78
2022-09-23T21:57:08.234Z,6.80
2022-09-23T22:02:12.900Z,9.45
2022-09-23T22:07:20.196Z,7.22
2022-09-23T22:12:22.487Z,6.90
2022-09-23T22:17:24.945Z,6.90
2022-09-23T22:22:27.207Z,8.13
2022-09-23T22:27:32.485Z,9.00
2022-09-23T22:32:40.956Z,17.33
2022-09-23T22:37:48.415Z,28.73
2022-09-23T22:42:54.311Z,23.42
2022-09-23T22:47:56.875Z,13.13
2022-09-23T22:53:01.931Z,7.50
2022-09-23T22:58:27.595Z,15.50
2022-09-23T23:03:27.125Z,7.50
2022-09-23T23:08:29.771Z,11.70
2022-09-23T23:13:32.724Z,18.92
2022-09-23T23:18:40.260Z,17.73
2022-09-23T23:23:47.502Z,14.50
2022-09-23T23:28:50.677Z,16.83
2022-09-23T23:33:55.295Z,13.80
2022-09-23T23:38:57.716Z,11.27
2022-09-23T23:44:05.565Z,13.85
2022-09-23T23:49:10.643Z,12.33
2022-09-23T23:54:12.963Z,15.38
2022-09-23T23:59:23.772Z,14.43
